createdAt,value
2024-02-08T00:02:08.639Z,2.78
2024-02-08T00:04:38.246Z,2.92
2024-02-08T00:07:06.141Z,2.92
2024-02-08T00:09:33.282Z,2.83
2024-02-08T00:12:04.949Z,2.88
2024-02-08T00:14:34.517Z,2.80
2024-02-08T00:17:04.894Z,2.40
2024-02-08T00:19:38.776Z,2.72
2024-02-08T00:22:06.463Z,2.70
2024-02-08T00:24:58.885Z,2.35
2024-02-08T00:27:26.339Z,2.55
2024-02-08T00:30:03.669Z,2.58
2024-02-08T00:32:40.881Z,2.70
2024-02-08T00:35:11.591Z,2.33
2024-02-08T00:38:33.809Z,2.40
2024-02-08T00:41:01.166Z,2.10
2024-02-08T00:43:29.183Z,2.53
2024-02-08T00:46:05.844Z,2.22
2024-02-08T00:48:33.144Z,2.05
2024-02-08T00:51:01.104Z,2.10
2024-02-08T00:53:28.475Z,2.00
2024-02-08T00:56:05.828Z,2.10
2024-02-08T00:58:35.374Z,1.90
2024-02-08T01:01:02.607Z,1.80
2024-02-08T01:03:30.014Z,2.00
2024-02-08T01:05:57.710Z,1.73
2024-02-08T01:08:26.887Z,2.00
2024-02-08T01:10:54.015Z,1.90
2024-02-08T01:13:23.130Z,1.83
2024-02-08T01:15:58.432Z,1.75
2024-02-08T01:18:26.723Z,2.00
2024-02-08T01:20:53.935Z,1.70
2024-02-08T01:23:23.867Z,1.63
2024-02-08T01:25:52.137Z,1.73
2024-02-08T01:28:19.518Z,1.50
2024-02-08T01:30:47.351Z,1.50
2024-02-08T01:33:14.868Z,1.55
2024-02-08T01:35:41.852Z,1.50
2024-02-08T01:38:45.425Z,1.48
2024-02-08T01:43:40.057Z,1.60
2024-02-08T01:46:09.797Z,1.48
2024-02-08T01:52:01.796Z,1.50
2024-02-08T01:54:30.617Z,1.35
2024-02-08T01:57:04.708Z,1.50
2024-02-08T01:59:33.280Z,1.60
2024-02-08T02:02:03.187Z,1.60
2024-02-08T02:04:57.836Z,1.50
2024-02-08T02:11:30.732Z,1.50
2024-02-08T02:13:59.628Z,1.30
2024-02-08T02:20:07.518Z,1.60
2024-02-08T02:22:49.521Z,1.30
2024-02-08T02:25:17.351Z,1.60
2024-02-08T02:27:45.514Z,1.50
2024-02-08T02:33:26.875Z,1.50
2024-02-08T02:35:55.056Z,1.65
2024-02-08T02:38:25.374Z,1.50
2024-02-08T02:40:52.757Z,1.35
2024-02-08T02:43:27.394Z,1.85
2024-02-08T02:45:56.653Z,1.80
2024-02-08T02:48:24.130Z,2.00
2024-02-08T02:50:52.819Z,1.88
2024-02-08T02:53:36.724Z,2.20
2024-02-08T02:56:07.200Z,1.50
2024-02-08T02:58:35.476Z,2.10
2024-02-08T03:01:24.308Z,2.10
2024-02-08T03:03:57.319Z,1.60
2024-02-08T03:07:14.659Z,1.98
2024-02-08T03:09:41.756Z,1.65
2024-02-08T03:12:14.047Z,2.10
2024-02-08T03:15:05.146Z,1.80
2024-02-08T03:17:41.081Z,1.85
2024-02-08T03:23:48.419Z,1.60
2024-02-08T03:26:19.008Z,1.70
2024-02-08T03:28:48.003Z,1.80
2024-02-08T03:31:15.432Z,1.70
2024-02-08T03:34:00.360Z,1.60
2024-02-08T03:36:28.765Z,1.17
2024-02-08T03:38:58.121Z,1.50
2024-02-08T03:41:27.371Z,1.40
2024-02-08T03:43:54.815Z,1.40
2024-02-08T03:46:30.383Z,1.50
2024-02-08T03:49:21.313Z,1.60
2024-02-08T03:52:38.234Z,1.30
2024-02-08T03:55:10.749Z,1.20
2024-02-08T03:57:38.184Z,1.48
2024-02-08T04:00:14.285Z,1.20
2024-02-08T04:02:44.935Z,1.20
2024-02-08T04:05:23.453Z,1.40
2024-02-08T04:07:58.640Z,1.25
2024-02-08T04:10:50.759Z,1.20
2024-02-08T04:16:41.005Z,1.20
2024-02-08T04:19:26.529Z,1.40
2024-02-08T04:25:48.072Z,1.15
2024-02-08T04:28:52.573Z,1.27
2024-02-08T04:31:40.290Z,1.30
2024-02-08T04:34:26.251Z,1.27
2024-02-08T04:38:08.012Z,1.38
2024-02-08T04:44:09.793Z,1.10
2024-02-08T04:46:56.065Z,1.30
2024-02-08T04:49:41.756Z,1.40
2024-02-08T04:52:28.146Z,1.30
2024-02-08T04:55:14.813Z,1.40
2024-02-08T04:57:46.102Z,1.60
2024-02-08T05:04:02.407Z,1.23
2024-02-08T05:06:57.140Z,1.20
2024-02-08T05:09:26.878Z,1.35
2024-02-08T05:11:54.342Z,1.30
2024-02-08T05:14:28.300Z,1.23
2024-02-08T05:16:56.204Z,1.27
2024-02-08T05:19:25.083Z,1.48
2024-02-08T05:21:55.449Z,1.50
2024-02-08T05:27:07.405Z,1.90
2024-02-08T05:30:29.984Z,2.00
2024-02-08T05:33:24.337Z,2.22
2024-02-08T05:36:26.861Z,2.40
2024-02-08T05:38:58.002Z,2.67
2024-02-08T05:41:37.386Z,1.95
2024-02-08T05:44:08.478Z,2.22
2024-02-08T05:47:18.799Z,2.40
2024-02-08T05:50:09.130Z,2.50
2024-02-08T05:52:36.652Z,2.30
2024-02-08T05:55:16.073Z,2.15
2024-02-08T05:58:08.626Z,2.45
2024-02-08T06:00:54.700Z,2.22
2024-02-08T06:03:35.137Z,2.30
2024-02-08T06:06:17.091Z,2.10
2024-02-08T06:08:47.734Z,2.42
2024-02-08T06:11:38.297Z,2.65
2024-02-08T06:14:20.193Z,2.30
2024-02-08T06:17:07.917Z,2.20
2024-02-08T06:20:00.715Z,2.30
2024-02-08T06:22:30.492Z,2.42
2024-02-08T06:25:09.677Z,1.90
2024-02-08T06:27:43.467Z,2.17
2024-02-08T06:30:19.371Z,2.92
2024-02-08T06:32:47.176Z,3.28
2024-02-08T06:38:33.552Z,4.10
2024-02-08T06:41:14.800Z,3.97
2024-02-08T06:44:00.740Z,3.70
2024-02-08T06:47:06.634Z,4.03
2024-02-08T06:56:07.440Z,3.72
2024-02-08T06:58:56.601Z,3.75
2024-02-08T07:01:43.631Z,3.90
2024-02-08T07:04:43.891Z,3.97
2024-02-08T07:07:30.002Z,4.40
2024-02-08T07:10:31.330Z,4.80
2024-02-08T07:13:36.809Z,4.40
2024-02-08T07:16:23.367Z,4.75
2024-02-08T07:19:09.261Z,7.63
2024-02-08T07:25:11.586Z,5.90
2024-02-08T07:27:57.355Z,6.75
2024-02-08T07:30:43.280Z,5.70
2024-02-08T07:33:29.365Z,5.70
2024-02-08T07:36:33.621Z,5.35
2024-02-08T07:39:20.583Z,6.05
2024-02-08T07:41:54.984Z,5.93
2024-02-08T07:44:34.088Z,7.00
2024-02-08T07:47:59.716Z,8.95
2024-02-08T07:50:36.718Z,8.57
2024-02-08T07:53:20.850Z,6.63
2024-02-08T07:55:51.133Z,6.50
2024-02-08T07:58:20.008Z,6.43
2024-02-08T08:00:50.919Z,6.18
2024-02-08T08:03:59.201Z,5.65
2024-02-08T08:06:36.115Z,9.38
2024-02-08T08:09:23.671Z,7.10
2024-02-08T12:14:35.463Z,7.38
2024-02-08T12:17:08.004Z,7.70
2024-02-08T12:19:39.192Z,4.75
2024-02-08T12:22:06.778Z,4.93
2024-02-08T12:24:50.338Z,7.65
2024-02-08T12:27:50.399Z,6.72
2024-02-08T12:30:44.468Z,6.93
2024-02-08T12:33:14.230Z,6.07
2024-02-08T12:35:43.066Z,5.07
2024-02-08T12:38:13.915Z,6.25
2024-02-08T12:40:45.217Z,7.40
2024-02-08T12:43:35.277Z,7.10
2024-02-08T12:46:03.007Z,7.43
2024-02-08T12:48:30.318Z,5.20
2024-02-08T12:51:24.653Z,5.07
2024-02-08T12:54:15.767Z,4.70
2024-02-08T12:56:46.914Z,5.03
2024-02-08T12:59:19.241Z,7.80
2024-02-08T13:02:18.732Z,5.95
2024-02-08T13:04:50.030Z,8.13
2024-02-08T13:07:20.312Z,7.97
2024-02-08T13:09:48.182Z,5.75
2024-02-08T13:12:21.450Z,8.40
2024-02-08T13:14:52.354Z,8.75
2024-02-08T13:17:22.451Z,8.48
2024-02-08T13:22:37.168Z,5.57
2024-02-08T13:25:04.748Z,9.30
2024-02-08T13:27:32.198Z,6.20
2024-02-08T13:30:02.415Z,5.90
2024-02-08T13:35:24.284Z,5.60
2024-02-08T13:38:14.034Z,5.35
2024-02-08T13:41:11.277Z,4.97
2024-02-08T13:47:22.398Z,5.72
2024-02-08T13:49:56.110Z,6.97
2024-02-08T13:52:29.789Z,5.30
2024-02-08T13:54:59.963Z,5.45
2024-02-08T13:57:27.376Z,7.60
2024-02-08T14:00:23.006Z,6.60
2024-02-08T14:02:57.911Z,8.50
2024-02-08T14:05:31.293Z,8.00
2024-02-08T14:08:02.130Z,8.13
2024-02-08T14:13:31.337Z,7.28
2024-02-08T14:16:08.266Z,6.07
2024-02-08T14:18:38.857Z,8.30
2024-02-08T14:21:44.388Z,10.07
2024-02-08T14:24:15.497Z,10.77
2024-02-08T14:26:44.710Z,8.82
2024-02-08T14:29:14.699Z,7.38
2024-02-08T14:34:13.346Z,7.00
2024-02-08T14:36:47.171Z,7.05
2024-02-08T14:39:30.590Z,6.78
2024-02-08T14:42:12.625Z,7.22
2024-02-08T14:44:45.603Z,6.38
2024-02-08T14:47:23.332Z,6.43
2024-02-08T14:50:02.356Z,8.55
2024-02-08T14:52:45.136Z,6.30
2024-02-08T14:55:21.705Z,6.23
2024-02-08T14:57:53.555Z,9.82
2024-02-08T15:00:39.472Z,9.32
2024-02-08T15:03:38.243Z,6.65
2024-02-08T15:06:31.441Z,7.20
2024-02-08T15:09:18.259Z,7.70
2024-02-08T15:11:58.994Z,11.68
2024-02-08T15:14:36.745Z,7.25
2024-02-08T15:17:20.106Z,11.30
2024-02-08T15:19:53.240Z,10.05
2024-02-08T15:22:30.936Z,12.38
2024-02-08T15:24:59.044Z,10.40
2024-02-08T15:27:45.096Z,7.40
2024-02-08T15:30:15.490Z,8.18
2024-02-08T15:33:00.097Z,6.53
2024-02-08T15:35:37.898Z,6.90
2024-02-08T15:38:18.501Z,6.55
2024-02-08T15:40:48.648Z,6.40
2024-02-08T15:43:18.579Z,8.52
2024-02-08T15:45:53.888Z,9.68
2024-02-08T15:48:33.652Z,8.23
2024-02-08T15:51:12.022Z,6.43
2024-02-08T15:53:50.905Z,5.97
2024-02-08T15:56:22.762Z,6.03
2024-02-08T15:59:03.047Z,6.53
2024-02-08T16:01:53.662Z,6.00
2024-02-08T16:04:46.619Z,6.75
2024-02-08T16:07:20.211Z,5.90
2024-02-08T16:09:59.022Z,5.88
2024-02-08T16:12:33.779Z,5.10
2024-02-08T16:15:06.840Z,5.68
2024-02-08T16:17:35.944Z,6.35
2024-02-08T16:20:32.265Z,5.57
2024-02-08T16:23:14.232Z,5.80
2024-02-08T16:25:49.291Z,5.40
2024-02-08T16:28:18.072Z,5.57
2024-02-08T16:31:10.906Z,5.38
2024-02-08T16:33:49.532Z,6.57
2024-02-08T16:36:28.868Z,6.63
2024-02-08T16:39:16.540Z,9.38
2024-02-08T16:41:50.215Z,6.97
2024-02-08T16:44:51.461Z,10.32
2024-02-08T16:47:29.539Z,11.50
2024-02-08T16:50:08.353Z,13.75
2024-02-08T16:52:47.539Z,7.57
2024-02-08T16:55:22.547Z,8.85
2024-02-08T16:58:02.484Z,12.18
2024-02-08T17:00:37.822Z,10.25
2024-02-08T17:03:06.761Z,8.07
2024-02-08T17:05:54.280Z,7.47
2024-02-08T17:08:22.236Z,10.32
2024-02-08T17:10:58.184Z,7.38
2024-02-08T17:13:46.236Z,6.97
2024-02-08T17:16:36.276Z,6.40
2024-02-08T17:19:31.289Z,6.30
2024-02-08T17:22:08.070Z,5.60
2024-02-08T17:24:40.780Z,10.15
2024-02-08T17:27:20.131Z,10.75
2024-02-08T17:29:51.980Z,8.75
2024-02-08T17:32:27.173Z,6.80
2024-02-08T17:35:00.040Z,6.90
2024-02-08T17:37:41.822Z,7.05
2024-02-08T17:44:04.630Z,10.10
2024-02-08T17:46:39.609Z,10.93
2024-02-08T17:49:20.869Z,12.70
2024-02-08T17:52:29.150Z,11.23
2024-02-08T17:55:23.065Z,9.23
2024-02-08T17:58:37.824Z,11.25
2024-02-08T18:01:59.073Z,13.45
2024-02-08T18:04:29.323Z,11.88
2024-02-08T18:07:13.025Z,11.50
2024-02-08T18:10:18.490Z,11.38
2024-02-08T18:13:10.805Z,11.77
2024-02-08T18:19:43.613Z,12.13
2024-02-08T18:22:11.686Z,12.52
2024-02-08T18:24:49.363Z,14.30
2024-02-08T18:27:26.723Z,9.65
2024-02-08T18:29:55.782Z,14.77
2024-02-08T18:32:48.783Z,18.00
2024-02-08T18:35:17.642Z,11.20
2024-02-08T18:37:58.491Z,15.05
2024-02-08T18:40:25.973Z,13.70
2024-02-08T18:42:58.105Z,14.70
2024-02-08T18:45:29.274Z,10.18
2024-02-08T18:47:58.685Z,11.80
2024-02-08T18:50:31.648Z,10.73
2024-02-08T18:53:07.013Z,10.07
2024-02-08T18:55:40.740Z,14.52
2024-02-08T18:58:34.784Z,16.17
2024-02-08T19:01:02.390Z,17.38
2024-02-08T19:03:35.663Z,14.95
2024-02-08T19:06:09.549Z,11.65
2024-02-08T19:08:37.974Z,10.07
2024-02-08T19:11:07.677Z,18.65
2024-02-08T19:13:37.896Z,15.43
2024-02-08T19:16:09.263Z,10.57
2024-02-08T19:18:53.381Z,9.53
2024-02-08T19:21:29.757Z,10.15
2024-02-08T19:24:03.491Z,13.88
2024-02-08T19:26:46.157Z,11.23
2024-02-08T19:29:32.073Z,10.90
2024-02-08T19:32:02.712Z,10.90
2024-02-08T19:34:32.677Z,10.65
2024-02-08T19:37:34.944Z,10.68
2024-02-08T19:40:09.958Z,10.50
2024-02-08T19:42:39.118Z,10.65
2024-02-08T19:45:20.645Z,10.45
2024-02-08T19:47:50.909Z,10.57
2024-02-08T19:50:22.474Z,10.02
2024-02-08T19:52:50.174Z,10.38
2024-02-08T19:55:29.860Z,10.00
2024-02-08T20:01:10.620Z,9.98
2024-02-08T20:04:26.355Z,11.18
2024-02-08T20:06:56.264Z,11.35
2024-02-08T20:09:35.393Z,12.50
2024-02-08T20:15:52.701Z,13.38
2024-02-08T20:18:47.115Z,11.48
2024-02-08T20:21:14.549Z,11.45
2024-02-08T20:23:41.890Z,10.77
2024-02-08T20:26:09.893Z,10.23
2024-02-08T20:28:37.856Z,10.32
2024-02-08T20:31:08.741Z,10.20
2024-02-08T20:33:38.667Z,9.55
2024-02-08T20:36:09.709Z,9.07
2024-02-08T20:38:38.499Z,10.85
2024-02-08T20:41:08.392Z,8.68
2024-02-08T20:43:38.218Z,8.27
2024-02-08T20:46:06.510Z,11.75
2024-02-08T20:48:39.443Z,11.88
2024-02-08T20:53:36.067Z,7.63
2024-02-08T20:56:04.896Z,10.10
2024-02-08T20:58:32.328Z,7.55
2024-02-08T21:01:02.620Z,7.43
2024-02-08T21:03:30.022Z,6.63
2024-02-08T21:05:59.433Z,7.07
2024-02-08T21:08:27.401Z,9.63
2024-02-08T21:10:57.637Z,7.93
2024-02-08T21:13:26.255Z,6.55
2024-02-08T21:15:54.773Z,7.78
2024-02-08T21:18:23.093Z,9.80
2024-02-08T21:20:50.772Z,6.03
2024-02-08T21:23:21.361Z,6.90
2024-02-08T21:25:51.895Z,12.23
2024-02-08T21:28:20.098Z,8.57
2024-02-08T21:30:47.374Z,8.40
2024-02-08T21:33:15.410Z,10.02
2024-02-08T21:35:44.083Z,12.63
2024-02-08T21:38:11.920Z,9.65
2024-02-08T21:40:43.458Z,8.20
2024-02-08T21:43:11.847Z,11.60
2024-02-08T21:45:43.261Z,11.07
2024-02-08T21:48:11.934Z,9.18
2024-02-08T21:50:41.631Z,10.70
2024-02-08T21:53:09.603Z,12.07
2024-02-08T21:55:36.960Z,7.78
2024-02-08T21:58:05.480Z,7.70
2024-02-08T22:00:34.028Z,12.10
2024-02-08T22:03:02.015Z,7.45
2024-02-08T22:05:29.447Z,7.57
2024-02-08T22:07:58.829Z,7.78
2024-02-08T22:10:27.606Z,7.65
2024-02-08T22:12:55.189Z,7.65
2024-02-08T22:15:22.914Z,7.00
2024-02-08T22:17:54.942Z,6.60
2024-02-08T22:20:25.816Z,6.55
2024-02-08T22:22:53.452Z,12.80
2024-02-08T22:25:25.820Z,7.93
2024-02-08T22:30:21.134Z,8.02
2024-02-08T22:32:49.018Z,7.57
2024-02-08T22:35:19.371Z,7.70
2024-02-08T22:37:54.962Z,7.57
2024-02-08T22:40:24.271Z,6.70
2024-02-08T22:42:51.626Z,7.25
2024-02-08T22:45:25.739Z,7.20
2024-02-08T22:47:54.210Z,6.63
2024-02-08T22:50:23.456Z,7.47
2024-02-08T22:52:53.861Z,6.90
2024-02-08T22:55:25.980Z,6.57
2024-02-08T22:57:56.724Z,7.15
2024-02-08T23:00:24.224Z,5.80
2024-02-08T23:02:55.977Z,8.90
2024-02-08T23:05:28.062Z,5.77
2024-02-08T23:07:58.424Z,5.70
2024-02-08T23:10:25.500Z,5.50
2024-02-08T23:12:53.789Z,6.72
2024-02-08T23:15:21.784Z,7.07
2024-02-08T23:17:55.959Z,9.15
2024-02-08T23:20:24.372Z,5.68
2024-02-08T23:22:55.330Z,5.70
2024-02-08T23:25:23.253Z,5.40
2024-02-08T23:27:52.492Z,5.60
2024-02-08T23:30:25.197Z,5.47
2024-02-08T23:32:53.248Z,5.32
2024-02-08T23:35:25.544Z,5.47
2024-02-08T23:37:57.061Z,5.30
2024-02-08T23:40:27.737Z,5.97
2024-02-08T23:43:01.214Z,5.85
2024-02-08T23:45:35.128Z,5.88
2024-02-08T23:48:02.697Z,6.13
2024-02-08T23:50:30.257Z,6.57
2024-02-08T23:53:02.333Z,6.15
2024-02-08T23:55:36.210Z,6.20
2024-02-08T23:58:12.266Z,5.80
